sensor_id;sensor_type;location;lat;lon;timestamp;temperature;humidity
25963;DHT22;13760;52.588;13.406;2022-09-09T00:00:38;14.80;99.90
25963;DHT22;13760;52.588;13.406;2022-09-09T00:03:14;14.80;99.90
25963;DHT22;13760;52.588;13.406;2022-09-09T00:08:49;14.70;99.90
25963;DHT22;13760;52.588;13.406;2022-09-09T00:11:27;14.70;99.90
25963;DHT22;13760;52.588;13.406;2022-09-09T00:13:56;14.70;99.90
25963;DHT22;13760;52.588;13.406;2022-09-09T00:16:28;14.70;99.90
25963;DHT22;13760;52.588;13.406;2022-09-09T00:20:10;14.70;99.90
25963;DHT22;13760;52.588;13.406;2022-09-09T00:22:20;14.70;99.90
25963;DHT22;13760;52.588;13.406;2022-09-09T00:24:52;14.60;99.90
25963;DHT22;13760;52.588;13.406;2022-09-09T00:30:21;14.60;99.90
25963;DHT22;13760;52.588;13.406;2022-09-09T00:33:12;14.60;99.90
25963;DHT22;13760;52.588;13.406;2022-09-09T00:35:59;14.50;99.90
25963;DHT22;13760;52.588;13.406;2022-09-09T00:38:40;14.50;99.90
25963;DHT22;13760;52.588;13.406;2022-09-09T00:43:57;14.40;99.90
25963;DHT22;13760;52.588;13.406;2022-09-09T00:59:51;14.40;99.90
25963;DHT22;13760;52.588;13.406;2022-09-09T01:06:02;14.40;99.90
25963;DHT22;13760;52.588;13.406;2022-09-09T01:10:52;14.40;99.90
25963;DHT22;13760;52.588;13.406;2022-09-09T01:13:24;14.40;99.90
25963;DHT22;13760;52.588;13.406;2022-09-09T01:15:51;14.40;99.90
25963;DHT22;13760;52.588;13.406;2022-09-09T01:18:23;14.50;99.90
25963;DHT22;13760;52.588;13.406;2022-09-09T01:26:37;14.50;99.90
25963;DHT22;13760;52.588;13.406;2022-09-09T01:29:13;14.50;99.90
25963;DHT22;13760;52.588;13.406;2022-09-09T01:31:55;14.50;99.90
25963;DHT22;13760;52.588;13.406;2022-09-09T01:34:24;14.60;99.90
25963;DHT22;13760;52.588;13.406;2022-09-09T01:37:03;14.50;99.90
25963;DHT22;13760;52.588;13.406;2022-09-09T01:39:31;14.50;99.90
25963;DHT22;13760;52.588;13.406;2022-09-09T01:41:58;14.50;99.90
25963;DHT22;13760;52.588;13.406;2022-09-09T01:44:25;14.50;99.90
25963;DHT22;13760;52.588;13.406;2022-09-09T01:46:51;14.50;99.90
25963;DHT22;13760;52.588;13.406;2022-09-09T01:49:17;14.60;99.90
25963;DHT22;13760;52.588;13.406;2022-09-09T01:51:43;14.50;99.90
25963;DHT22;13760;52.588;13.406;2022-09-09T01:54:11;14.50;99.90
25963;DHT22;13760;52.588;13.406;2022-09-09T01:57:06;14.50;99.90
25963;DHT22;13760;52.588;13.406;2022-09-09T02:02:36;14.50;99.90
25963;DHT22;13760;52.588;13.406;2022-09-09T02:07:41;14.40;99.90
25963;DHT22;13760;52.588;13.406;2022-09-09T02:10:12;14.40;99.90
25963;DHT22;13760;52.588;13.406;2022-09-09T02:12:46;14.30;99.90
25963;DHT22;13760;52.588;13.406;2022-09-09T02:15:33;14.30;99.90
25963;DHT22;13760;52.588;13.406;2022-09-09T02:18:01;14.30;99.90
25963;DHT22;13760;52.588;13.406;2022-09-09T02:20:30;14.30;99.90
25963;DHT22;13760;52.588;13.406;2022-09-09T02:22:58;14.30;99.90
25963;DHT22;13760;52.588;13.406;2022-09-09T02:25:26;14.30;99.90
25963;DHT22;13760;52.588;13.406;2022-09-09T02:27:55;14.30;99.90
25963;DHT22;13760;52.588;13.406;2022-09-09T02:30:23;14.10;99.90
25963;DHT22;13760;52.588;13.406;2022-09-09T02:32:50;14.10;99.90
25963;DHT22;13760;52.588;13.406;2022-09-09T02:35:21;14.10;99.90
25963;DHT22;13760;52.588;13.406;2022-09-09T02:37:51;14.10;99.90
25963;DHT22;13760;52.588;13.406;2022-09-09T02:40:18;14.10;99.90
25963;DHT22;13760;52.588;13.406;2022-09-09T02:42:46;14.10;99.90
25963;DHT22;13760;52.588;13.406;2022-09-09T02:45:14;14.10;99.90
25963;DHT22;13760;52.588;13.406;2022-09-09T02:47:53;14.10;99.90
25963;DHT22;13760;52.588;13.406;2022-09-09T02:50:32;14.10;99.90
25963;DHT22;13760;52.588;13.406;2022-09-09T02:53:08;14.10;99.90
25963;DHT22;13760;52.588;13.406;2022-09-09T02:58:10;14.10;99.90
25963;DHT22;13760;52.588;13.406;2022-09-09T03:00:39;14.10;99.90
25963;DHT22;13760;52.588;13.406;2022-09-09T03:03:06;14.00;99.90
25963;DHT22;13760;52.588;13.406;2022-09-09T03:05:34;14.00;99.90
25963;DHT22;13760;52.588;13.406;2022-09-09T03:08:01;14.00;99.90
25963;DHT22;13760;52.588;13.406;2022-09-09T03:10:27;13.90;99.90
25963;DHT22;13760;52.588;13.406;2022-09-09T03:12:53;13.90;99.90
25963;DHT22;13760;52.588;13.406;2022-09-09T03:15:18;13.80;99.90
25963;DHT22;13760;52.588;13.406;2022-09-09T03:17:44;13.80;99.90
25963;DHT22;13760;52.588;13.406;2022-09-09T03:20:10;13.80;99.90
25963;DHT22;13760;52.588;13.406;2022-09-09T03:22:36;13.70;99.90
25963;DHT22;13760;52.588;13.406;2022-09-09T03:25:01;13.70;99.90
25963;DHT22;13760;52.588;13.406;2022-09-09T03:27:28;13.70;99.90
25963;DHT22;13760;52.588;13.406;2022-09-09T03:29:54;13.70;99.90
25963;DHT22;13760;52.588;13.406;2022-09-09T03:32:21;13.60;99.90
25963;DHT22;13760;52.588;13.406;2022-09-09T03:34:48;13.60;99.90
25963;DHT22;13760;52.588;13.406;2022-09-09T03:37:16;13.60;99.90
25963;DHT22;13760;52.588;13.406;2022-09-09T03:39:43;13.60;99.90
25963;DHT22;13760;52.588;13.406;2022-09-09T03:42:08;13.60;99.90
25963;DHT22;13760;52.588;13.406;2022-09-09T03:44:34;13.60;99.90
25963;DHT22;13760;52.588;13.406;2022-09-09T03:47:00;13.60;99.90
25963;DHT22;13760;52.588;13.406;2022-09-09T03:49:27;13.60;99.90
25963;DHT22;13760;52.588;13.406;2022-09-09T03:51:55;13.60;99.90
25963;DHT22;13760;52.588;13.406;2022-09-09T03:54:24;13.60;99.90
25963;DHT22;13760;52.588;13.406;2022-09-09T03:56:50;13.60;99.90
25963;DHT22;13760;52.588;13.406;2022-09-09T03:59:16;13.60;99.90
25963;DHT22;13760;52.588;13.406;2022-09-09T04:01:41;13.60;99.90
25963;DHT22;13760;52.588;13.406;2022-09-09T04:04:08;13.60;99.90
25963;DHT22;13760;52.588;13.406;2022-09-09T04:06:35;13.60;99.90
25963;DHT22;13760;52.588;13.406;2022-09-09T04:09:01;13.60;99.90
25963;DHT22;13760;52.588;13.406;2022-09-09T04:11:29;13.60;99.90
25963;DHT22;13760;52.588;13.406;2022-09-09T04:13:55;13.60;99.90
25963;DHT22;13760;52.588;13.406;2022-09-09T04:16:21;13.60;99.90
25963;DHT22;13760;52.588;13.406;2022-09-09T04:18:47;13.60;99.90
25963;DHT22;13760;52.588;13.406;2022-09-09T04:21:14;13.60;99.90
25963;DHT22;13760;52.588;13.406;2022-09-09T04:23:40;13.60;99.90
25963;DHT22;13760;52.588;13.406;2022-09-09T04:26:06;13.60;99.90
25963;DHT22;13760;52.588;13.406;2022-09-09T04:28:34;13.50;99.90
25963;DHT22;13760;52.588;13.406;2022-09-09T04:31:08;13.50;99.90
25963;DHT22;13760;52.588;13.406;2022-09-09T04:33:36;13.50;99.90
25963;DHT22;13760;52.588;13.406;2022-09-09T04:36:03;13.50;99.90
25963;DHT22;13760;52.588;13.406;2022-09-09T04:38:29;13.40;99.90
25963;DHT22;13760;52.588;13.406;2022-09-09T04:40:54;13.40;99.90
25963;DHT22;13760;52.588;13.406;2022-09-09T04:43:20;13.40;99.90
25963;DHT22;13760;52.588;13.406;2022-09-09T04:45:48;13.40;99.90
25963;DHT22;13760;52.588;13.406;2022-09-09T04:48:14;13.30;99.90
25963;DHT22;13760;52.588;13.406;2022-09-09T04:50:40;13.30;99.90
25963;DHT22;13760;52.588;13.406;2022-09-09T04:53:06;13.30;99.90
25963;DHT22;13760;52.588;13.406;2022-09-09T04:55:33;13.30;99.90
25963;DHT22;13760;52.588;13.406;2022-09-09T04:58:04;13.30;99.90
25963;DHT22;13760;52.588;13.406;2022-09-09T05:00:31;13.30;99.90
25963;DHT22;13760;52.588;13.406;2022-09-09T05:03:02;13.30;99.90
25963;DHT22;13760;52.588;13.406;2022-09-09T05:05:29;13.40;99.90
25963;DHT22;13760;52.588;13.406;2022-09-09T05:08:01;13.40;99.90
25963;DHT22;13760;52.588;13.406;2022-09-09T05:10:27;13.40;99.90
25963;DHT22;13760;52.588;13.406;2022-09-09T05:12:53;13.40;99.90
25963;DHT22;13760;52.588;13.406;2022-09-09T05:15:19;13.40;99.90
25963;DHT22;13760;52.588;13.406;2022-09-09T05:17:46;13.40;99.90
25963;DHT22;13760;52.588;13.406;2022-09-09T05:20:12;13.50;99.90
25963;DHT22;13760;52.588;13.406;2022-09-09T05:22:37;13.50;99.90
25963;DHT22;13760;52.588;13.406;2022-09-09T05:25:09;13.60;99.90
25963;DHT22;13760;52.588;13.406;2022-09-09T05:27:35;13.60;99.90
25963;DHT22;13760;52.588;13.406;2022-09-09T05:30:00;13.60;99.90
25963;DHT22;13760;52.588;13.406;2022-09-09T05:32:30;13.70;99.90
25963;DHT22;13760;52.588;13.406;2022-09-09T05:34:57;13.70;99.90
25963;DHT22;13760;52.588;13.406;2022-09-09T05:37:27;13.80;99.90
25963;DHT22;13760;52.588;13.406;2022-09-09T05:39:52;13.80;99.90
25963;DHT22;13760;52.588;13.406;2022-09-09T05:42:18;13.90;99.90
25963;DHT22;13760;52.588;13.406;2022-09-09T05:44:44;14.00;99.90
25963;DHT22;13760;52.588;13.406;2022-09-09T05:47:10;14.00;99.90
25963;DHT22;13760;52.588;13.406;2022-09-09T05:49:36;14.10;99.90
25963;DHT22;13760;52.588;13.406;2022-09-09T05:52:02;14.20;99.90
25963;DHT22;13760;52.588;13.406;2022-09-09T05:54:29;14.20;99.90
25963;DHT22;13760;52.588;13.406;2022-09-09T05:56:55;14.20;99.90
25963;DHT22;13760;52.588;13.406;2022-09-09T05:59:21;14.30;99.90
25963;DHT22;13760;52.588;13.406;2022-09-09T06:01:48;14.40;99.90
25963;DHT22;13760;52.588;13.406;2022-09-09T06:04:14;14.40;99.90
25963;DHT22;13760;52.588;13.406;2022-09-09T06:06:40;14.40;99.90
25963;DHT22;13760;52.588;13.406;2022-09-09T06:09:08;14.50;99.90
25963;DHT22;13760;52.588;13.406;2022-09-09T06:11:39;14.50;99.90
25963;DHT22;13760;52.588;13.406;2022-09-09T06:14:05;14.60;99.90
25963;DHT22;13760;52.588;13.406;2022-09-09T06:16:31;14.70;99.90
25963;DHT22;13760;52.588;13.406;2022-09-09T06:18:58;14.70;99.90
25963;DHT22;13760;52.588;13.406;2022-09-09T06:21:25;14.80;99.90
25963;DHT22;13760;52.588;13.406;2022-09-09T06:23:51;14.80;99.90
25963;DHT22;13760;52.588;13.406;2022-09-09T06:28:46;15.00;99.90
25963;DHT22;13760;52.588;13.406;2022-09-09T06:31:13;15.00;99.90
25963;DHT22;13760;52.588;13.406;2022-09-09T06:33:40;15.10;99.90
25963;DHT22;13760;52.588;13.406;2022-09-09T06:36:24;15.10;99.90
25963;DHT22;13760;52.588;13.406;2022-09-09T06:38:53;15.20;99.90
25963;DHT22;13760;52.588;13.406;2022-09-09T06:41:20;15.20;99.90
25963;DHT22;13760;52.588;13.406;2022-09-09T06:43:46;15.30;99.90
25963;DHT22;13760;52.588;13.406;2022-09-09T06:46:21;15.30;99.90
25963;DHT22;13760;52.588;13.406;2022-09-09T06:48:47;15.40;99.90
25963;DHT22;13760;52.588;13.406;2022-09-09T06:51:16;15.50;99.90
25963;DHT22;13760;52.588;13.406;2022-09-09T06:53:43;15.50;99.90
25963;DHT22;13760;52.588;13.406;2022-09-09T06:58:36;15.50;99.90
25963;DHT22;13760;52.588;13.406;2022-09-09T07:01:12;15.50;99.90
25963;DHT22;13760;52.588;13.406;2022-09-09T07:03:39;15.50;99.90
25963;DHT22;13760;52.588;13.406;2022-09-09T07:06:06;15.60;99.90
25963;DHT22;13760;52.588;13.406;2022-09-09T07:08:33;15.70;99.90
25963;DHT22;13760;52.588;13.406;2022-09-09T07:11:07;15.80;99.90
25963;DHT22;13760;52.588;13.406;2022-09-09T07:13:37;16.00;99.90
25963;DHT22;13760;52.588;13.406;2022-09-09T07:16:12;16.10;99.90
25963;DHT22;13760;52.588;13.406;2022-09-09T07:18:40;16.30;99.90
25963;DHT22;13760;52.588;13.406;2022-09-09T07:21:13;16.40;99.90
25963;DHT22;13760;52.588;13.406;2022-09-09T07:24:00;16.50;99.90
25963;DHT22;13760;52.588;13.406;2022-09-09T07:26:36;16.60;99.90
25963;DHT22;13760;52.588;13.406;2022-09-09T07:29:04;16.70;99.90
25963;DHT22;13760;52.588;13.406;2022-09-09T07:31:37;16.80;99.90
25963;DHT22;13760;52.588;13.406;2022-09-09T07:34:24;17.00;99.90
25963;DHT22;13760;52.588;13.406;2022-09-09T07:36:58;17.20;99.90
25963;DHT22;13760;52.588;13.406;2022-09-09T07:39:34;17.40;99.90
25963;DHT22;13760;52.588;13.406;2022-09-09T07:42:09;17.60;99.90
25963;DHT22;13760;52.588;13.406;2022-09-09T07:45:02;17.80;99.90
25963;DHT22;13760;52.588;13.406;2022-09-09T07:47:30;18.00;99.90
25963;DHT22;13760;52.588;13.406;2022-09-09T07:50:03;18.20;99.90
25963;DHT22;13760;52.588;13.406;2022-09-09T07:52:29;18.40;99.90
25963;DHT22;13760;52.588;13.406;2022-09-09T07:54:55;18.60;99.90
25963;DHT22;13760;52.588;13.406;2022-09-09T07:57:21;18.80;99.90
25963;DHT22;13760;52.588;13.406;2022-09-09T07:59:50;19.00;99.90
25963;DHT22;13760;52.588;13.406;2022-09-09T08:02:16;19.20;99.90
25963;DHT22;13760;52.588;13.406;2022-09-09T08:04:42;19.30;99.90
25963;DHT22;13760;52.588;13.406;2022-09-09T08:07:10;19.30;99.90
25963;DHT22;13760;52.588;13.406;2022-09-09T08:09:36;19.20;99.90
25963;DHT22;13760;52.588;13.406;2022-09-09T08:12:02;19.20;99.90
25963;DHT22;13760;52.588;13.406;2022-09-09T08:14:28;19.30;99.90
25963;DHT22;13760;52.588;13.406;2022-09-09T08:16:53;19.40;99.90
25963;DHT22;13760;52.588;13.406;2022-09-09T08:19:19;19.50;99.90
25963;DHT22;13760;52.588;13.406;2022-09-09T08:21:45;19.70;99.90
25963;DHT22;13760;52.588;13.406;2022-09-09T08:24:12;19.80;99.90
25963;DHT22;13760;52.588;13.406;2022-09-09T08:26:43;19.90;99.90
25963;DHT22;13760;52.588;13.406;2022-09-09T08:29:10;20.00;99.90
25963;DHT22;13760;52.588;13.406;2022-09-09T08:31:41;20.00;99.90
25963;DHT22;13760;52.588;13.406;2022-09-09T08:34:08;20.10;99.90
25963;DHT22;13760;52.588;13.406;2022-09-09T08:36:38;20.20;99.90
25963;DHT22;13760;52.588;13.406;2022-09-09T08:39:05;20.20;99.90
25963;DHT22;13760;52.588;13.406;2022-09-09T08:52:30;20.30;99.90
25963;DHT22;13760;52.588;13.406;2022-09-09T08:55:24;20.30;99.90
25963;DHT22;13760;52.588;13.406;2022-09-09T08:57:56;20.30;99.90
25963;DHT22;13760;52.588;13.406;2022-09-09T09:00:22;20.30;99.90
25963;DHT22;13760;52.588;13.406;2022-09-09T09:05:41;20.00;99.90
25963;DHT22;13760;52.588;13.406;2022-09-09T09:10:47;19.90;99.90
25963;DHT22;13760;52.588;13.406;2022-09-09T09:13:34;19.90;99.90
25963;DHT22;13760;52.588;13.406;2022-09-09T09:18:55;19.90;99.90
25963;DHT22;13760;52.588;13.406;2022-09-09T09:21:43;19.90;99.90
25963;DHT22;13760;52.588;13.406;2022-09-09T09:24:20;19.90;99.90
25963;DHT22;13760;52.588;13.406;2022-09-09T09:26:47;19.90;99.90
25963;DHT22;13760;52.588;13.406;2022-09-09T09:29:16;20.00;99.90
25963;DHT22;13760;52.588;13.406;2022-09-09T09:31:52;20.10;99.90
25963;DHT22;13760;52.588;13.406;2022-09-09T09:34:20;20.20;99.90
25963;DHT22;13760;52.588;13.406;2022-09-09T09:36:59;20.40;99.90
25963;DHT22;13760;52.588;13.406;2022-09-09T09:39:28;20.50;99.90
25963;DHT22;13760;52.588;13.406;2022-09-09T09:41:54;20.70;99.90
25963;DHT22;13760;52.588;13.406;2022-09-09T09:44:30;20.90;99.90
25963;DHT22;13760;52.588;13.406;2022-09-09T09:49:34;21.00;99.90
25963;DHT22;13760;52.588;13.406;2022-09-09T09:52:02;21.10;99.90
25963;DHT22;13760;52.588;13.406;2022-09-09T09:54:48;21.20;99.90
25963;DHT22;13760;52.588;13.406;2022-09-09T09:57:18;21.30;99.90
25963;DHT22;13760;52.588;13.406;2022-09-09T09:59:44;21.30;99.90
25963;DHT22;13760;52.588;13.406;2022-09-09T10:02:24;21.40;99.90
25963;DHT22;13760;52.588;13.406;2022-09-09T10:05:20;21.40;99.90
25963;DHT22;13760;52.588;13.406;2022-09-09T10:07:46;21.50;99.90
25963;DHT22;13760;52.588;13.406;2022-09-09T10:10:26;21.60;99.90
25963;DHT22;13760;52.588;13.406;2022-09-09T10:15:35;21.60;99.90
25963;DHT22;13760;52.588;13.406;2022-09-09T10:18:38;21.60;99.90
25963;DHT22;13760;52.588;13.406;2022-09-09T10:21:43;21.60;99.90
25963;DHT22;13760;52.588;13.406;2022-09-09T10:24:49;21.60;99.90
25963;DHT22;13760;52.588;13.406;2022-09-09T10:36:06;22.00;99.90
25963;DHT22;13760;52.588;13.406;2022-09-09T10:38:42;22.20;99.90
25963;DHT22;13760;52.588;13.406;2022-09-09T10:41:16;22.40;99.90
25963;DHT22;13760;52.588;13.406;2022-09-09T10:52:23;22.30;99.90
25963;DHT22;13760;52.588;13.406;2022-09-09T10:55:13;22.20;99.90
25963;DHT22;13760;52.588;13.406;2022-09-09T10:57:44;22.30;99.90
25963;DHT22;13760;52.588;13.406;2022-09-09T11:03:00;22.40;99.90
25963;DHT22;13760;52.588;13.406;2022-09-09T11:05:41;22.40;99.90
25963;DHT22;13760;52.588;13.406;2022-09-09T11:08:18;22.50;99.90
25963;DHT22;13760;52.588;13.406;2022-09-09T11:11:03;22.70;99.90
25963;DHT22;13760;52.588;13.406;2022-09-09T11:13:46;22.90;99.90
25963;DHT22;13760;52.588;13.406;2022-09-09T11:18:53;23.00;99.90
25963;DHT22;13760;52.588;13.406;2022-09-09T11:21:28;23.00;99.90
25963;DHT22;13760;52.588;13.406;2022-09-09T11:24:04;22.90;99.90
25963;DHT22;13760;52.588;13.406;2022-09-09T11:26:47;22.90;99.90
25963;DHT22;13760;52.588;13.406;2022-09-09T11:29:28;23.00;99.90
25963;DHT22;13760;52.588;13.406;2022-09-09T11:40:28;23.70;99.90
25963;DHT22;13760;52.588;13.406;2022-09-09T11:43:04;23.80;99.90
25963;DHT22;13760;52.588;13.406;2022-09-09T11:45:31;23.90;99.90
25963;DHT22;13760;52.588;13.406;2022-09-09T11:48:00;24.00;99.90
25963;DHT22;13760;52.588;13.406;2022-09-09T11:53:04;24.10;99.90
25963;DHT22;13760;52.588;13.406;2022-09-09T11:55:33;24.30;99.90
25963;DHT22;13760;52.588;13.406;2022-09-09T11:58:01;24.40;99.90
25963;DHT22;13760;52.588;13.406;2022-09-09T12:00:38;24.40;99.90
25963;DHT22;13760;52.588;13.406;2022-09-09T12:03:06;24.40;99.90
25963;DHT22;13760;52.588;13.406;2022-09-09T12:05:55;24.30;99.90
25963;DHT22;13760;52.588;13.406;2022-09-09T12:08:28;24.30;99.90
25963;DHT22;13760;52.588;13.406;2022-09-09T12:10:56;24.40;99.90
25963;DHT22;13760;52.588;13.406;2022-09-09T12:13:26;24.50;99.90
25963;DHT22;13760;52.588;13.406;2022-09-09T12:15:54;24.60;99.90
25963;DHT22;13760;52.588;13.406;2022-09-09T12:18:23;24.60;99.90
25963;DHT22;13760;52.588;13.406;2022-09-09T12:21:07;24.60;99.90
25963;DHT22;13760;52.588;13.406;2022-09-09T12:23:50;24.60;99.90
25963;DHT22;13760;52.588;13.406;2022-09-09T12:31:54;24.40;99.90
25963;DHT22;13760;52.588;13.406;2022-09-09T12:34:41;24.50;99.90
25963;DHT22;13760;52.588;13.406;2022-09-09T12:39:55;24.40;99.90
25963;DHT22;13760;52.588;13.406;2022-09-09T12:42:23;24.30;99.90
25963;DHT22;13760;52.588;13.406;2022-09-09T12:44:53;24.10;99.90
25963;DHT22;13760;52.588;13.406;2022-09-09T12:47:22;24.00;99.90
25963;DHT22;13760;52.588;13.406;2022-09-09T12:49:50;23.90;99.90
25963;DHT22;13760;52.588;13.406;2022-09-09T12:52:19;23.90;99.90
25963;DHT22;13760;52.588;13.406;2022-09-09T12:54:47;23.90;99.90
25963;DHT22;13760;52.588;13.406;2022-09-09T12:57:14;23.90;99.90
25963;DHT22;13760;52.588;13.406;2022-09-09T12:59:43;23.80;99.90
25963;DHT22;13760;52.588;13.406;2022-09-09T13:02:19;23.80;99.90
25963;DHT22;13760;52.588;13.406;2022-09-09T13:04:45;23.80;99.90
25963;DHT22;13760;52.588;13.406;2022-09-09T13:07:13;23.80;99.90
25963;DHT22;13760;52.588;13.406;2022-09-09T13:09:39;23.90;99.90
25963;DHT22;13760;52.588;13.406;2022-09-09T13:12:09;23.80;99.90
25963;DHT22;13760;52.588;13.406;2022-09-09T13:14:38;23.70;99.90
25963;DHT22;13760;52.588;13.406;2022-09-09T13:17:06;23.60;99.90
25963;DHT22;13760;52.588;13.406;2022-09-09T13:19:36;23.50;99.90
25963;DHT22;13760;52.588;13.406;2022-09-09T13:25:26;23.30;99.90
25963;DHT22;13760;52.588;13.406;2022-09-09T13:27:56;23.20;99.90
25963;DHT22;13760;52.588;13.406;2022-09-09T13:30:28;23.20;99.90
25963;DHT22;13760;52.588;13.406;2022-09-09T13:35:44;23.10;99.90
25963;DHT22;13760;52.588;13.406;2022-09-09T13:38:16;23.00;99.90
25963;DHT22;13760;52.588;13.406;2022-09-09T13:43:53;22.90;99.90
25963;DHT22;13760;52.588;13.406;2022-09-09T13:46:35;22.90;99.90
25963;DHT22;13760;52.588;13.406;2022-09-09T13:54:03;22.90;99.90
25963;DHT22;13760;52.588;13.406;2022-09-09T13:56:31;22.90;99.90
25963;DHT22;13760;52.588;13.406;2022-09-09T13:58:58;22.90;99.90
25963;DHT22;13760;52.588;13.406;2022-09-09T14:01:23;23.10;99.90
25963;DHT22;13760;52.588;13.406;2022-09-09T14:03:52;23.20;99.90
25963;DHT22;13760;52.588;13.406;2022-09-09T14:06:18;23.30;99.90
25963;DHT22;13760;52.588;13.406;2022-09-09T14:08:44;23.40;99.90
25963;DHT22;13760;52.588;13.406;2022-09-09T14:11:12;23.40;99.90
25963;DHT22;13760;52.588;13.406;2022-09-09T14:13:38;23.40;99.90
25963;DHT22;13760;52.588;13.406;2022-09-09T14:16:04;23.40;99.90
25963;DHT22;13760;52.588;13.406;2022-09-09T14:18:30;23.60;99.90
25963;DHT22;13760;52.588;13.406;2022-09-09T14:20:55;23.50;99.90
25963;DHT22;13760;52.588;13.406;2022-09-09T14:23:22;23.50;99.90
25963;DHT22;13760;52.588;13.406;2022-09-09T14:25:48;23.50;99.90
25963;DHT22;13760;52.588;13.406;2022-09-09T14:28:14;23.40;99.90
25963;DHT22;13760;52.588;13.406;2022-09-09T14:30:51;23.30;99.90
25963;DHT22;13760;52.588;13.406;2022-09-09T14:33:20;23.30;99.90
25963;DHT22;13760;52.588;13.406;2022-09-09T14:35:57;23.20;99.90
25963;DHT22;13760;52.588;13.406;2022-09-09T14:38:24;23.20;99.90
25963;DHT22;13760;52.588;13.406;2022-09-09T14:40:50;23.20;99.90
25963;DHT22;13760;52.588;13.406;2022-09-09T14:43:16;23.20;99.90
25963;DHT22;13760;52.588;13.406;2022-09-09T14:45:41;23.10;99.90
25963;DHT22;13760;52.588;13.406;2022-09-09T14:48:08;23.20;99.90
25963;DHT22;13760;52.588;13.406;2022-09-09T14:50:34;23.10;99.90
25963;DHT22;13760;52.588;13.406;2022-09-09T14:53:05;23.00;99.90
25963;DHT22;13760;52.588;13.406;2022-09-09T14:55:31;23.00;99.90
25963;DHT22;13760;52.588;13.406;2022-09-09T14:57:56;23.00;99.90
25963;DHT22;13760;52.588;13.406;2022-09-09T15:00:22;23.00;99.90
25963;DHT22;13760;52.588;13.406;2022-09-09T15:02:55;23.00;99.90
25963;DHT22;13760;52.588;13.406;2022-09-09T15:05:22;23.00;99.90
25963;DHT22;13760;52.588;13.406;2022-09-09T15:07:48;22.90;99.90
25963;DHT22;13760;52.588;13.406;2022-09-09T15:10:16;22.90;99.90
25963;DHT22;13760;52.588;13.406;2022-09-09T15:12:46;22.80;99.90
25963;DHT22;13760;52.588;13.406;2022-09-09T15:15:12;22.90;99.90
25963;DHT22;13760;52.588;13.406;2022-09-09T15:17:38;22.80;99.90
25963;DHT22;13760;52.588;13.406;2022-09-09T15:20:04;22.80;99.90
25963;DHT22;13760;52.588;13.406;2022-09-09T15:22:31;22.80;99.90
25963;DHT22;13760;52.588;13.406;2022-09-09T15:24:57;22.80;99.90
25963;DHT22;13760;52.588;13.406;2022-09-09T15:27:22;22.80;99.90
25963;DHT22;13760;52.588;13.406;2022-09-09T15:29:49;22.80;99.90
25963;DHT22;13760;52.588;13.406;2022-09-09T15:32:18;22.80;99.90
25963;DHT22;13760;52.588;13.406;2022-09-09T15:34:43;22.90;99.90
25963;DHT22;13760;52.588;13.406;2022-09-09T15:37:12;22.90;99.90
25963;DHT22;13760;52.588;13.406;2022-09-09T15:39:40;22.90;99.90
25963;DHT22;13760;52.588;13.406;2022-09-09T15:42:06;22.90;99.90
25963;DHT22;13760;52.588;13.406;2022-09-09T15:44:41;22.80;99.90
25963;DHT22;13760;52.588;13.406;2022-09-09T15:47:07;22.70;99.90
25963;DHT22;13760;52.588;13.406;2022-09-09T15:49:35;22.70;99.90
25963;DHT22;13760;52.588;13.406;2022-09-09T15:52:01;22.60;99.90
25963;DHT22;13760;52.588;13.406;2022-09-09T15:54:50;22.50;99.90
25963;DHT22;13760;52.588;13.406;2022-09-09T15:57:16;22.40;99.90
25963;DHT22;13760;52.588;13.406;2022-09-09T15:59:42;22.30;99.90
25963;DHT22;13760;52.588;13.406;2022-09-09T16:02:10;22.30;99.90
25963;DHT22;13760;52.588;13.406;2022-09-09T16:04:42;22.30;99.90
25963;DHT22;13760;52.588;13.406;2022-09-09T16:07:07;22.20;99.90
25963;DHT22;13760;52.588;13.406;2022-09-09T16:09:37;22.10;99.90
25963;DHT22;13760;52.588;13.406;2022-09-09T16:12:04;22.10;99.90
25963;DHT22;13760;52.588;13.406;2022-09-09T16:14:34;22.00;99.90
25963;DHT22;13760;52.588;13.406;2022-09-09T16:17:05;21.90;99.90
25963;DHT22;13760;52.588;13.406;2022-09-09T16:19:32;21.90;99.90
25963;DHT22;13760;52.588;13.406;2022-09-09T16:22:00;21.80;99.90
25963;DHT22;13760;52.588;13.406;2022-09-09T16:24:26;21.80;99.90
25963;DHT22;13760;52.588;13.406;2022-09-09T16:26:53;21.70;99.90
25963;DHT22;13760;52.588;13.406;2022-09-09T16:29:20;21.70;99.90
25963;DHT22;13760;52.588;13.406;2022-09-09T16:31:48;21.60;99.90
25963;DHT22;13760;52.588;13.406;2022-09-09T16:34:16;21.60;99.90
25963;DHT22;13760;52.588;13.406;2022-09-09T16:36:43;21.60;99.90
25963;DHT22;13760;52.588;13.406;2022-09-09T16:39:11;21.50;99.90
25963;DHT22;13760;52.588;13.406;2022-09-09T16:41:40;21.50;99.90
25963;DHT22;13760;52.588;13.406;2022-09-09T16:44:09;21.40;99.90
25963;DHT22;13760;52.588;13.406;2022-09-09T16:46:37;21.40;99.90
25963;DHT22;13760;52.588;13.406;2022-09-09T16:49:06;21.30;99.90
25963;DHT22;13760;52.588;13.406;2022-09-09T16:51:38;21.30;99.90
25963;DHT22;13760;52.588;13.406;2022-09-09T16:54:05;21.20;99.90
25963;DHT22;13760;52.588;13.406;2022-09-09T16:57:10;21.20;99.90
25963;DHT22;13760;52.588;13.406;2022-09-09T16:59:35;21.10;99.90
25963;DHT22;13760;52.588;13.406;2022-09-09T17:02:01;21.10;99.90
25963;DHT22;13760;52.588;13.406;2022-09-09T17:04:28;21.00;99.90
25963;DHT22;13760;52.588;13.406;2022-09-09T17:06:57;20.90;99.90
25963;DHT22;13760;52.588;13.406;2022-09-09T17:09:38;20.80;99.90
25963;DHT22;13760;52.588;13.406;2022-09-09T17:12:09;20.70;99.90
25963;DHT22;13760;52.588;13.406;2022-09-09T17:14:38;20.70;99.90
25963;DHT22;13760;52.588;13.406;2022-09-09T17:17:04;20.60;99.90
25963;DHT22;13760;52.588;13.406;2022-09-09T17:19:36;20.60;99.90
25963;DHT22;13760;52.588;13.406;2022-09-09T17:22:02;20.50;99.90
25963;DHT22;13760;52.588;13.406;2022-09-09T17:24:34;20.40;99.90
25963;DHT22;13760;52.588;13.406;2022-09-09T17:27:19;20.30;99.90
25963;DHT22;13760;52.588;13.406;2022-09-09T17:29:49;20.20;99.90
25963;DHT22;13760;52.588;13.406;2022-09-09T17:32:15;20.10;99.90
25963;DHT22;13760;52.588;13.406;2022-09-09T17:34:45;20.00;99.90
25963;DHT22;13760;52.588;13.406;2022-09-09T17:37:11;20.00;99.90
25963;DHT22;13760;52.588;13.406;2022-09-09T17:39:37;20.00;99.90
25963;DHT22;13760;52.588;13.406;2022-09-09T17:42:03;20.00;99.90